Time;durP1;ratioP1;P1;durP2;ratioP2;P2;SDS_P1;SDS_P2;PMS_P1;PMS_P2;Temp;Humidity;BMP_temperature;BMP_pressure;BME280_temperature;BME280_humidity;BME280_pressure;Samples;Min_cycle;Max_cycle;Signal;HPM_P1;HPM_P2
2024/04/08 00:00:44;;;;;;;0.20;0.10;;;;;;;-146.84;100.00;66378.44;5345448;26;20647;-67
2024/04/08 00:03:10;;;;;;;0.20;0.10;;;;;;;-146.84;100.00;66378.44;5426802;26;20278;-67
2024/04/08 00:05:37;;;;;;;0.20;0.10;;;;;;;-146.84;100.00;66378.44;5454389;26;20224;-66
2024/04/08 00:08:03;;;;;;;0.20;0.10;;;;;;;-146.84;100.00;66378.44;5441267;26;20279;-67
2024/04/08 00:10:30;;;;;;;0.20;0.10;;;;;;;-146.84;100.00;66378.44;5440578;26;20225;-66
2024/04/08 00:12:56;;;;;;;0.20;0.10;;;;;;;-146.84;100.00;66378.44;5433977;26;20248;-67
2024/04/08 00:15:22;;;;;;;0.20;0.08;;;;;;;-146.84;100.00;66378.44;5444250;26;20239;-67
2024/04/08 00:17:48;;;;;;;0.20;0.10;;;;;;;-146.84;100.00;66378.44;5429904;26;20236;-67
2024/04/08 00:20:14;;;;;;;0.20;0.00;;;;;;;-146.84;100.00;66378.44;5432226;26;20804;-66
2024/04/08 00:22:40;;;;;;;0.20;0.10;;;;;;;-146.84;100.00;66378.44;5447772;26;20305;-67
2024/04/08 00:25:08;;;;;;;0.20;0.10;;;;;;;-146.84;100.00;66378.44;5414896;26;20224;-67
2024/04/08 00:27:34;;;;;;;0.20;0.10;;;;;;;-146.84;100.00;66378.44;5443876;26;20337;-67
2024/04/08 00:30:01;;;;;;;0.20;0.10;;;;;;;-146.84;100.00;66378.44;5449021;26;20270;-66
2024/04/08 00:32:28;;;;;;;0.20;0.10;;;;;;;-146.84;100.00;66378.44;5448797;26;20240;-66
2024/04/08 00:34:54;;;;;;;0.20;0.10;;;;;;;-146.84;100.00;66378.44;5448254;26;20271;-66
2024/04/08 00:37:20;;;;;;;0.20;0.10;;;;;;;-146.84;100.00;66378.44;5438905;26;20247;-67
2024/04/08 00:39:47;;;;;;;0.20;0.10;;;;;;;-146.84;100.00;66378.44;5453107;26;20281;-66
2024/04/08 00:42:13;;;;;;;0.20;0.10;;;;;;;-146.84;100.00;66378.44;5447569;26;20304;-67
2024/04/08 00:44:39;;;;;;;0.20;0.10;;;;;;;-146.84;100.00;66378.44;5435294;26;20349;-67
2024/04/08 00:47:05;;;;;;;0.20;0.10;;;;;;;-146.84;100.00;66378.44;5439085;26;20232;-67
2024/04/08 00:49:32;;;;;;;0.20;0.10;;;;;;;-146.84;100.00;66378.44;5416087;26;20232;-66
2024/04/08 00:51:58;;;;;;;0.20;0.10;;;;;;;-146.84;100.00;66378.44;5415736;26;20364;-66
2024/04/08 00:54:25;;;;;;;0.20;0.10;;;;;;;-146.84;100.00;66378.44;5447619;26;20232;-66
2024/04/08 00:56:53;;;;;;;0.20;0.05;;;;;;;-146.84;100.00;66378.44;5465772;26;20279;-66
2024/04/08 00:59:20;;;;;;;0.20;0.10;;;;;;;-146.84;100.00;66378.44;5414912;26;20336;-67
2024/04/08 01:01:46;;;;;;;0.20;0.10;;;;;;;-146.84;100.00;66378.44;5443090;26;20344;-67
2024/04/08 01:04:13;;;;;;;0.20;0.10;;;;;;;-146.84;100.00;66378.44;5456656;26;20236;-67
2024/04/08 01:06:39;;;;;;;0.20;0.10;;;;;;;-146.84;100.00;66378.44;5447058;26;20228;-66
2024/04/08 01:09:05;;;;;;;0.20;0.10;;;;;;;-146.84;100.00;66378.44;5437169;26;20282;-67
2024/04/08 01:11:32;;;;;;;0.20;0.10;;;;;;;-146.84;100.00;66378.44;5443469;26;20337;-67
2024/04/08 01:13:58;;;;;;;0.20;0.10;;;;;;;-146.84;100.00;66378.44;5400311;26;20457;-67
2024/04/08 01:16:24;;;;;;;0.20;0.10;;;;;;;-146.84;100.00;66378.44;5445428;26;20228;-66
2024/04/08 01:18:50;;;;;;;0.20;0.10;;;;;;;-146.84;100.00;66378.44;5413922;26;20237;-66
2024/04/08 01:21:16;;;;;;;0.20;0.10;;;;;;;-146.84;100.00;66378.44;5417032;26;20229;-67
2024/04/08 01:23:43;;;;;;;0.20;0.10;;;;;;;-146.84;100.00;66378.44;5442361;26;20278;-67
2024/04/08 01:26:09;;;;;;;0.20;0.10;;;;;;;-146.84;100.00;66378.44;5447128;26;20228;-66
2024/04/08 01:28:36;;;;;;;0.20;0.10;;;;;;;-146.84;100.00;66378.44;5403960;26;20246;-66
2024/04/08 01:31:03;;;;;;;0.20;0.10;;;;;;;-146.84;100.00;66378.44;5446964;26;20231;-66
2024/04/08 01:33:30;;;;;;;0.20;0.10;;;;;;;-146.84;100.00;66378.44;5445732;26;20247;-67
2024/04/08 01:35:59;;;;;;;0.20;0.10;;;;;;;-146.84;100.00;66378.44;5438629;26;20283;-67
2024/04/08 01:38:29;;;;;;;0.20;0.10;;;;;;;-146.84;100.00;66378.44;5414674;26;20224;-66
2024/04/08 01:40:55;;;;;;;0.20;0.10;;;;;;;-146.84;100.00;66378.44;5394214;26;20306;-67
2024/04/08 01:43:22;;;;;;;0.20;0.08;;;;;;;-146.84;100.00;66378.44;5451337;26;20232;-66
2024/04/08 01:45:49;;;;;;;0.20;0.10;;;;;;;-146.84;100.00;66378.44;5445662;26;20224;-67
2024/04/08 01:48:15;;;;;;;0.20;0.10;;;;;;;-146.84;100.00;66378.44;5410362;26;20235;-66
2024/04/08 01:50:41;;;;;;;0.20;0.10;;;;;;;-146.84;100.00;66378.44;5458786;26;20235;-66
2024/04/08 01:53:07;;;;;;;0.20;0.10;;;;;;;-146.84;100.00;66378.44;5457509;26;20318;-67
2024/04/08 01:55:33;;;;;;;0.20;0.10;;;;;;;-146.84;100.00;66378.44;5463481;26;20279;-66
2024/04/08 01:57:59;;;;;;;0.20;0.10;;;;;;;-146.84;100.00;66378.44;5444757;26;20278;-66
2024/04/08 02:00:25;;;;;;;0.20;0.10;;;;;;;-146.84;100.00;66378.44;5446329;26;20356;-67
2024/04/08 02:02:52;;;;;;;0.20;0.10;;;;;;;-146.84;100.00;66378.44;5427655;26;20287;-67
2024/04/08 02:05:18;;;;;;;0.20;0.10;;;;;;;-146.84;100.00;66378.44;5422031;26;20298;-66
2024/04/08 02:07:45;;;;;;;0.20;0.10;;;;;;;-146.84;100.00;66378.44;5470176;26;20280;-66
2024/04/08 02:10:11;;;;;;;0.20;0.10;;;;;;;-146.84;100.00;66378.44;5472793;26;20574;-66
2024/04/08 02:12:37;;;;;;;0.20;0.10;;;;;;;-146.84;100.00;66378.44;5402147;26;20278;-67
2024/04/08 02:15:04;;;;;;;0.20;0.10;;;;;;;-146.84;100.00;66378.44;5435930;26;20341;-66
2024/04/08 02:17:30;;;;;;;0.20;0.10;;;;;;;-146.84;100.00;66378.44;5444786;26;20815;-66
2024/04/08 02:19:57;;;;;;;0.20;0.10;;;;;;;-146.84;100.00;66378.44;5445175;26;20348;-66
2024/04/08 02:22:23;;;;;;;0.20;0.10;;;;;;;-146.84;100.00;66378.44;5445600;26;20231;-67
2024/04/08 02:24:49;;;;;;;0.20;0.10;;;;;;;-146.84;100.00;66378.44;5442627;26;20224;-67
2024/04/08 02:27:15;;;;;;;0.20;0.08;;;;;;;-146.84;100.00;66378.44;5444732;26;20762;-67
2024/04/08 02:29:42;;;;;;;0.20;0.10;;;;;;;-146.84;100.00;66378.44;5443400;26;20327;-67
2024/04/08 02:32:08;;;;;;;0.20;0.10;;;;;;;-146.84;100.00;66378.44;5442867;26;20235;-66
2024/04/08 02:34:34;;;;;;;0.20;0.10;;;;;;;-146.84;100.00;66378.44;5447370;26;20278;-67
2024/04/08 02:37:00;;;;;;;0.20;0.10;;;;;;;-146.84;100.00;66378.44;5442612;26;20227;-66
2024/04/08 02:39:27;;;;;;;0.20;0.10;;;;;;;-146.84;100.00;66378.44;5440191;26;20559;-66
2024/04/08 02:41:53;;;;;;;0.20;0.10;;;;;;;-146.84;100.00;66378.44;5439417;26;20228;-66
2024/04/08 02:44:19;;;;;;;0.20;0.10;;;;;;;-146.84;100.00;66378.44;5449773;26;20232;-66
2024/04/08 02:46:45;;;;;;;0.20;0.10;;;;;;;-146.84;100.00;66378.44;5446760;26;20235;-66
2024/04/08 02:49:11;;;;;;;0.20;0.10;;;;;;;-146.84;100.00;66378.44;5439338;26;20345;-66
2024/04/08 02:51:37;;;;;;;0.20;0.10;;;;;;;-146.84;100.00;66378.44;5433824;26;20972;-67
2024/04/08 02:54:03;;;;;;;0.20;0.10;;;;;;;-146.84;100.00;66378.44;5441224;26;20235;-67
2024/04/08 02:56:31;;;;;;;0.20;0.10;;;;;;;-146.84;100.00;66378.44;5453662;26;20270;-66
2024/04/08 02:58:57;;;;;;;0.20;0.10;;;;;;;-146.84;100.00;66378.44;5432701;26;20301;-66
2024/04/08 03:01:23;;;;;;;0.20;0.10;;;;;;;-146.84;100.00;66378.44;5459818;26;20304;-66
2024/04/08 03:03:49;;;;;;;0.20;0.10;;;;;;;-146.84;100.00;66378.44;5431927;26;20278;-67
2024/04/08 03:06:16;;;;;;;0.20;0.10;;;;;;;-146.84;100.00;66378.44;5426287;26;20285;-66
2024/04/08 03:08:43;;;;;;;0.20;0.10;;;;;;;-146.84;100.00;66378.44;5447349;26;20236;-67
2024/04/08 03:11:10;;;;;;;0.20;0.10;;;;;;;-146.84;100.00;66378.44;5459466;26;20600;-67
2024/04/08 03:13:38;;;;;;;0.20;0.10;;;;;;;-146.84;100.00;66378.44;5453137;26;20236;-68
2024/04/08 03:16:04;;;;;;;0.20;0.10;;;;;;;-146.84;100.00;66378.44;5414232;26;20240;-66
2024/04/08 03:18:30;;;;;;;0.20;0.10;;;;;;;-146.84;100.00;66378.44;5449723;26;20232;-67
2024/04/08 03:20:58;;;;;;;0.20;0.10;;;;;;;-146.84;100.00;66378.44;5440795;26;20236;-66
2024/04/08 03:23:26;;;;;;;0.20;0.10;;;;;;;-146.84;100.00;66378.44;5447720;26;20236;-67
2024/04/08 03:26:06;;;;;;;0.20;0.10;;;;;;;-146.84;100.00;66378.44;5445223;26;20850;-67
2024/04/08 03:28:33;;;;;;;0.20;0.10;;;;;;;-146.84;100.00;66378.44;5444845;26;20308;-66
2024/04/08 03:31:03;;;;;;;0.20;0.10;;;;;;;-146.84;100.00;66378.44;5431130;26;20240;-66
2024/04/08 03:33:30;;;;;;;0.20;0.10;;;;;;;-146.84;100.00;66378.44;5446564;26;21158;-67
2024/04/08 03:35:56;;;;;;;0.20;0.10;;;;;;;-146.84;100.00;66378.44;5444874;26;21106;-66
2024/04/08 03:38:22;;;;;;;0.20;0.10;;;;;;;-146.84;100.00;66378.44;5431851;26;20232;-67
2024/04/08 03:41:01;;;;;;;0.20;0.10;;;;;;;-146.84;100.00;66378.44;5441254;26;20233;-66
2024/04/08 03:43:28;;;;;;;0.20;0.10;;;;;;;-146.84;100.00;66378.44;5443237;26;20228;-67
2024/04/08 03:45:54;;;;;;;0.20;0.10;;;;;;;-146.84;100.00;66378.44;5437496;26;20223;-66
2024/04/08 03:48:20;;;;;;;0.20;0.10;;;;;;;-146.84;100.00;66378.44;5450082;26;20274;-66
2024/04/08 03:50:47;;;;;;;0.20;0.10;;;;;;;-146.84;100.00;66378.44;5448781;26;20235;-66
2024/04/08 03:53:13;;;;;;;0.20;0.10;;;;;;;-146.84;100.00;66378.44;5453992;26;20744;-66
2024/04/08 03:55:39;;;;;;;0.20;0.00;;;;;;;-146.84;100.00;66378.44;5427573;26;20231;-67
2024/04/08 03:58:06;;;;;;;0.20;0.10;;;;;;;-146.84;100.00;66378.44;5446566;26;20232;-68
2024/04/08 04:00:32;;;;;;;0.20;0.10;;;;;;;-146.84;100.00;66378.44;5437142;26;20279;-69
2024/04/08 04:02:58;;;;;;;0.20;0.00;;;;;;;-146.84;100.00;66378.44;5445996;26;20311;-68
2024/04/08 04:05:24;;;;;;;0.20;0.10;;;;;;;-146.84;100.00;66378.44;5441211;26;20294;-68
2024/04/08 04:07:50;;;;;;;0.20;0.10;;;;;;;-146.84;100.00;66378.44;5453973;26;20232;-69
2024/04/08 04:10:18;;;;;;;0.20;0.10;;;;;;;-146.84;100.00;66378.44;5459727;26;20342;-68
2024/04/08 04:12:44;;;;;;;0.20;0.10;;;;;;;-146.84;100.00;66378.44;5447232;26;20700;-67
2024/04/08 04:15:14;;;;;;;0.20;0.10;;;;;;;-146.84;100.00;66378.44;5439627;26;20279;-68
2024/04/08 04:17:41;;;;;;;0.20;0.10;;;;;;;-146.84;100.00;66378.44;5441742;26;20270;-66
2024/04/08 04:20:16;;;;;;;0.20;0.10;;;;;;;-146.84;100.00;66378.44;5430404;26;20339;-67
2024/04/08 04:22:42;;;;;;;0.20;0.05;;;;;;;-146.84;100.00;66378.44;5386738;26;20235;-67
2024/04/08 04:25:08;;;;;;;0.20;0.10;;;;;;;-146.84;100.00;66378.44;5434992;26;20345;-66
2024/04/08 04:27:34;;;;;;;0.20;0.10;;;;;;;-146.84;100.00;66378.44;5416267;26;20719;-67
2024/04/08 04:30:01;;;;;;;0.20;0.10;;;;;;;-146.84;100.00;66378.44;5435026;26;20236;-67
2024/04/08 04:32:27;;;;;;;0.20;0.10;;;;;;;-146.84;100.00;66378.44;5446917;26;20271;-66
2024/04/08 04:34:54;;;;;;;0.20;0.10;;;;;;;-146.84;100.00;66378.44;5415402;26;20232;-67
2024/04/08 04:37:20;;;;;;;0.20;0.10;;;;;;;-146.84;100.00;66378.44;5416791;26;20228;-67
2024/04/08 04:39:46;;;;;;;0.20;0.10;;;;;;;-146.84;100.00;66378.44;5446010;26;20324;-66
2024/04/08 04:42:13;;;;;;;0.20;0.10;;;;;;;-146.84;100.00;66378.44;5448566;26;20223;-66
2024/04/08 04:44:39;;;;;;;0.20;0.10;;;;;;;-146.84;100.00;66378.44;5440401;26;20284;-66
2024/04/08 04:47:05;;;;;;;0.20;0.10;;;;;;;-146.84;100.00;66378.44;5445329;26;20227;-66
2024/04/08 04:49:32;;;;;;;0.20;0.10;;;;;;;-146.84;100.00;66378.44;5446541;26;20236;-66
2024/04/08 04:51:58;;;;;;;0.20;0.10;;;;;;;-146.84;100.00;66378.44;5434977;26;20276;-66
2024/04/08 04:54:24;;;;;;;0.20;0.05;;;;;;;-146.84;100.00;66378.44;5443692;26;20309;-66
2024/04/08 04:56:50;;;;;;;0.20;0.10;;;;;;;-146.84;100.00;66378.44;5453351;26;20224;-67
2024/04/08 04:59:16;;;;;;;0.20;0.10;;;;;;;-146.84;100.00;66378.44;5435360;26;20229;-67
2024/04/08 05:01:42;;;;;;;0.20;0.10;;;;;;;-146.84;100.00;66378.44;5435627;26;20228;-67
2024/04/08 05:04:09;;;;;;;0.20;0.05;;;;;;;-146.84;100.00;66378.44;5444769;26;20734;-67
2024/04/08 05:06:35;;;;;;;0.20;0.10;;;;;;;-146.84;100.00;66378.44;5441249;26;20239;-67
2024/04/08 05:09:02;;;;;;;0.20;0.10;;;;;;;-146.84;100.00;66378.44;5456620;26;20372;-67
2024/04/08 05:11:28;;;;;;;0.20;0.10;;;;;;;-146.84;100.00;66378.44;5445881;26;20319;-67
2024/04/08 05:13:55;;;;;;;0.20;0.10;;;;;;;-146.84;100.00;66378.44;5461548;26;20319;-66
2024/04/08 05:16:21;;;;;;;0.20;0.10;;;;;;;-146.84;100.00;66378.44;5437999;26;20236;-67
2024/04/08 05:18:47;;;;;;;0.20;0.10;;;;;;;-146.84;100.00;66378.44;5440378;26;20228;-67
2024/04/08 05:21:13;;;;;;;0.20;0.10;;;;;;;-146.84;100.00;66378.44;5438506;26;20263;-66
2024/04/08 05:23:39;;;;;;;0.20;0.10;;;;;;;-146.84;100.00;66378.44;5428503;26;20598;-66
2024/04/08 05:26:05;;;;;;;0.20;0.00;;;;;;;-146.84;100.00;66378.44;5435332;26;20341;-66
2024/04/08 05:28:31;;;;;;;0.20;0.10;;;;;;;-146.84;100.00;66378.44;5432052;26;20228;-66
2024/04/08 05:30:58;;;;;;;0.20;0.10;;;;;;;-146.84;100.00;66378.44;5440287;26;20228;-67
2024/04/08 05:33:24;;;;;;;0.20;0.10;;;;;;;-146.84;100.00;66378.44;5404767;26;20272;-67
2024/04/08 05:35:50;;;;;;;0.20;0.10;;;;;;;-146.84;100.00;66378.44;5434862;26;20283;-66
2024/04/08 05:38:17;;;;;;;0.20;0.10;;;;;;;-146.84;100.00;66378.44;5438622;26;20228;-67
2024/04/08 05:40:43;;;;;;;0.20;0.10;;;;;;;-146.84;100.00;66378.44;5441316;26;20575;-66
2024/04/08 05:43:15;;;;;;;0.20;0.10;;;;;;;-146.84;100.00;66378.44;5440330;26;20269;-66
2024/04/08 05:45:42;;;;;;;0.20;0.10;;;;;;;-146.84;100.00;66378.44;5440655;26;20280;-67
2024/04/08 05:48:08;;;;;;;0.20;0.10;;;;;;;-146.84;100.00;66378.44;5396291;26;20229;-66
2024/04/08 05:50:35;;;;;;;0.20;0.10;;;;;;;-146.84;100.00;66378.44;5431857;26;20282;-66
2024/04/08 05:53:01;;;;;;;0.20;0.10;;;;;;;-146.84;100.00;66378.44;5431622;26;20236;-67
2024/04/08 05:55:31;;;;;;;0.20;0.10;;;;;;;-146.84;100.00;66378.44;5436582;26;20268;-66
2024/04/08 05:57:57;;;;;;;0.20;0.10;;;;;;;-146.84;100.00;66378.44;5440599;26;20224;-69
2024/04/08 06:00:24;;;;;;;0.20;0.10;;;;;;;-146.84;100.00;66378.44;5430219;26;20236;-69
2024/04/08 06:02:52;;;;;;;0.20;0.10;;;;;;;-146.84;100.00;66378.44;5389286;26;20278;-69
2024/04/08 06:05:23;;;;;;;0.20;0.10;;;;;;;-146.84;100.00;66378.44;5426654;26;20228;-70
2024/04/08 06:07:49;;;;;;;0.20;0.10;;;;;;;-146.84;100.00;66378.44;5440846;26;20224;-70
2024/04/08 06:10:20;;;;;;;0.20;0.10;;;;;;;24.54;41.89;100706.41;5432727;26;20236;-67
2024/04/08 06:12:46;;;;;;;0.20;0.10;;;;;;;24.42;42.35;100554.88;5429611;26;21716;-70
2024/04/08 06:15:16;;;;;;;0.20;0.10;;;;;;;24.46;42.35;100550.50;5454956;26;20266;-68
2024/04/08 06:17:43;;;;;;;0.20;0.10;;;;;;;24.53;42.48;100547.56;5380713;26;21142;-68
2024/04/08 06:20:09;;;;;;;0.20;0.10;;;;;;;24.59;42.01;100546.50;5423914;26;20233;-69
2024/04/08 06:22:35;;;;;;;0.20;0.10;;;;;;;24.65;42.45;100556.50;5433149;26;20227;-68
2024/04/08 06:25:02;;;;;;;0.20;0.10;;;;;;;24.68;42.27;100561.50;5393377;26;20265;-68
2024/04/08 06:27:29;;;;;;;0.20;0.10;;;;;;;24.73;42.27;100562.63;5428156;26;20335;-69
2024/04/08 06:29:55;;;;;;;0.20;0.10;;;;;;;24.74;42.35;100554.09;5433583;26;20374;-68
2024/04/08 06:32:21;;;;;;;0.20;0.17;;;;;;;24.75;42.31;100554.94;5425885;26;20224;-68
2024/04/08 06:34:48;;;;;;;0.20;0.10;;;;;;;24.76;42.15;100557.44;5409500;26;20555;-69
2024/04/08 06:37:14;;;;;;;0.20;0.10;;;;;;;24.76;42.49;100560.19;5436127;26;20236;-68
2024/04/08 06:39:42;;;;;;;0.20;0.10;;;;;;;24.78;42.02;100549.75;5427765;26;20232;-68
2024/04/08 06:42:17;;;;;;;0.20;0.20;;;;;;;24.79;42.42;100545.03;5434380;26;20827;-69
2024/04/08 06:44:48;;;;;;;0.20;0.10;;;;;;;24.80;42.29;100519.13;5406779;26;20265;-68
2024/04/08 06:47:14;;;;;;;0.20;0.10;;;;;;;24.81;41.94;100512.50;5431758;26;20229;-67
2024/04/08 06:49:44;;;;;;;0.20;0.10;;;;;;;24.83;43.42;100521.34;5437399;26;20220;-69
2024/04/08 06:52:10;;;;;;;0.20;0.10;;;;;;;24.83;43.13;100529.63;5437807;26;20225;-68
2024/04/08 06:54:36;;;;;;;0.20;0.10;;;;;;;24.85;42.60;100538.47;5398055;26;20228;-68
2024/04/08 06:57:02;;;;;;;0.20;0.10;;;;;;;24.84;42.88;100539.56;5433366;26;20309;-69
2024/04/08 06:59:28;;;;;;;0.20;0.10;;;;;;;-146.84;100.00;66378.44;5435583;26;20227;-67
2024/04/08 07:01:55;;;;;;;0.20;0.10;;;;;;;24.83;42.68;100551.69;5393635;26;20259;-68
2024/04/08 07:04:22;;;;;;;0.20;0.10;;;;;;;-146.84;100.00;66378.44;5436541;26;20286;-68
2024/04/08 07:06:48;;;;;;;0.20;0.10;;;;;;;-146.84;100.00;66378.44;5433950;26;20324;-66
2024/04/08 07:09:14;;;;;;;0.20;0.10;;;;;;;24.83;42.18;100543.44;5417194;26;20314;-67
2024/04/08 07:11:41;;;;;;;0.20;0.10;;;;;;;24.82;42.25;100519.69;5439034;26;20262;-67
2024/04/08 07:14:07;;;;;;;0.20;0.10;;;;;;;24.84;41.82;100506.44;5442206;26;20232;-67
2024/04/08 07:16:33;;;;;;;0.20;0.10;;;;;;;24.82;42.05;100490.19;5429634;26;20334;-67
2024/04/08 07:18:59;;;;;;;0.20;0.10;;;;;;;24.82;42.05;100490.19;5420370;26;20275;-66
2024/04/08 07:21:25;;;;;;;0.20;0.10;;;;;;;24.82;42.07;100514.16;5430982;26;20223;-67
2024/04/08 07:23:53;;;;;;;0.20;0.10;;;;;;;24.80;42.14;100519.13;5434485;26;20270;-67
2024/04/08 07:26:19;;;;;;;0.20;0.10;;;;;;;24.80;42.14;100519.13;5439818;26;20220;-68
2024/04/08 07:28:45;;;;;;;0.20;0.10;;;;;;;24.78;42.36;100496.50;5423853;26;20228;-69
2024/04/08 07:31:11;;;;;;;0.20;0.10;;;;;;;-146.84;100.00;66378.44;5426286;26;20224;-70
2024/04/08 07:33:38;;;;;;;0.20;0.10;;;;;;;-146.84;100.00;66378.44;5426224;26;20237;-69
2024/04/08 07:36:04;;;;;;;0.20;0.10;;;;;;;-146.84;100.00;66378.44;5435084;26;21182;-69
2024/04/08 07:38:31;;;;;;;0.20;0.10;;;;;;;-146.84;100.00;66378.44;5441415;26;20228;-68
2024/04/08 07:40:57;;;;;;;0.20;0.10;;;;;;;-146.84;100.00;66378.44;5437716;26;20262;-71
2024/04/08 07:43:24;;;;;;;0.20;0.10;;;;;;;-146.84;100.00;66378.44;5405041;26;20308;-68
2024/04/08 07:45:50;;;;;;;0.20;0.10;;;;;;;-146.84;100.00;66378.44;5441806;26;20707;-69
2024/04/08 07:48:19;;;;;;;0.20;0.10;;;;;;;24.98;42.60;100513.19;5438496;26;21146;-70
2024/04/08 07:50:45;;;;;;;0.20;0.10;;;;;;;25.01;43.17;100515.41;5439623;26;20265;-69
2024/04/08 07:53:12;;;;;;;0.20;0.10;;;;;;;25.04;42.99;100517.63;5442303;26;20236;-69
2024/04/08 07:55:38;;;;;;;0.20;0.10;;;;;;;25.08;42.82;100501.41;5437049;26;20240;-68
2024/04/08 07:58:05;;;;;;;0.20;0.10;;;;;;;25.10;43.05;100501.97;5443419;26;20336;-69
2024/04/08 08:00:31;;;;;;;0.20;0.10;;;;;;;25.12;43.08;100505.28;5434318;26;21150;-70
2024/04/08 08:02:59;;;;;;;0.20;0.10;;;;;;;25.16;42.74;100506.44;5439761;26;20235;-70
2024/04/08 08:05:26;;;;;;;0.20;0.10;;;;;;;25.21;42.81;100505.66;5432214;26;20267;-70
2024/04/08 08:07:52;;;;;;;0.20;0.10;;;;;;;25.25;42.64;100507.63;5475992;26;20232;-68
2024/04/08 08:10:19;;;;;;;0.20;0.10;;;;;;;25.29;42.87;100511.50;5442263;26;21115;-69
2024/04/08 08:12:45;;;;;;;0.20;0.10;;;;;;;25.34;42.65;100510.72;5439576;26;20228;-69
2024/04/08 08:15:13;;;;;;;0.20;0.10;;;;;;;25.38;42.70;100506.31;5438274;26;20273;-68
2024/04/08 08:17:39;;;;;;;0.20;0.10;;;;;;;25.44;42.61;100512.69;5426339;26;20276;-69
2024/04/08 08:20:06;;;;;;;0.20;0.10;;;;;;;25.48;42.67;100509.13;5448642;26;20250;-69
2024/04/08 08:22:32;;;;;;;0.20;0.10;;;;;;;25.54;42.73;100522.94;5421386;26;20241;-68
2024/04/08 08:24:58;;;;;;;0.20;0.10;;;;;;;25.54;42.73;100522.94;5435867;26;20275;-69
2024/04/08 08:27:24;;;;;;;0.20;0.10;;;;;;;25.63;42.31;100511.13;5452233;26;20239;-69
2024/04/08 08:29:51;;;;;;;0.20;0.10;;;;;;;25.68;42.56;100496.50;5456533;26;20231;-69
2024/04/08 08:32:17;;;;;;;0.20;0.10;;;;;;;25.72;42.57;100492.94;5445834;26;20324;-69
2024/04/08 08:34:44;;;;;;;0.20;0.10;;;;;;;25.77;42.17;100472.78;5413008;26;20701;-68
2024/04/08 08:37:10;;;;;;;0.20;0.10;;;;;;;25.81;42.19;100457.34;5457989;26;20228;-68
2024/04/08 08:39:39;;;;;;;0.20;0.10;;;;;;;25.86;42.10;100438.00;5428510;26;20341;-68
2024/04/08 08:42:08;;;;;;;0.20;0.10;;;;;;;25.90;42.20;100439.16;5438469;26;20266;-68
2024/04/08 08:44:34;;;;;;;0.20;0.10;;;;;;;25.95;42.00;100454.09;5441048;26;21073;-68
2024/04/08 08:47:01;;;;;;;0.20;0.10;;;;;;;25.98;41.98;100446.06;5441354;26;20232;-68
2024/04/08 08:49:29;;;;;;;0.20;0.10;;;;;;;26.03;41.96;100448.00;5441165;26;20723;-68
2024/04/08 08:51:56;;;;;;;0.20;0.10;;;;;;;26.07;41.84;100441.66;5438598;26;20356;-68
2024/04/08 08:54:22;;;;;;;0.20;0.10;;;;;;;26.12;41.71;100435.31;5411476;26;20252;-68
2024/04/08 08:56:48;;;;;;;0.20;0.10;;;;;;;26.17;41.74;100440.84;5438670;26;20352;-68
2024/04/08 08:59:15;;;;;;;0.20;0.10;;;;;;;26.22;41.65;100443.63;5445690;26;20762;-67
2024/04/08 09:01:41;;;;;;;0.20;0.10;;;;;;;26.25;41.92;100443.06;5438844;26;20283;-69
2024/04/08 09:04:08;;;;;;;0.20;0.10;;;;;;;26.27;41.40;100432.56;5437964;26;20316;-68
2024/04/08 09:06:34;;;;;;;0.20;0.10;;;;;;;26.30;41.29;100425.66;5441827;26;20226;-69
2024/04/08 09:09:01;;;;;;;0.20;0.10;;;;;;;26.32;40.83;100435.34;5434156;26;20274;-70
2024/04/08 09:11:27;;;;;;;0.20;0.10;;;;;;;26.34;41.27;100438.66;5417024;26;20232;-71
2024/04/08 09:14:06;;;;;;;0.20;0.10;;;;;;;26.39;40.55;100440.59;5444969;26;20637;-70
2024/04/08 09:16:32;;;;;;;0.20;0.10;;;;;;;26.44;40.64;100445.31;5439570;26;20223;-69
2024/04/08 09:18:58;;;;;;;0.20;0.10;;;;;;;26.47;40.59;100447.50;5419626;26;20274;-70
2024/04/08 09:21:26;;;;;;;0.20;0.10;;;;;;;26.51;40.80;100448.63;5444296;26;20273;-68
2024/04/08 09:24:04;;;;;;;0.20;0.10;;;;;;;26.53;40.40;100454.72;5435711;26;20231;-68
2024/04/08 09:26:32;;;;;;;0.20;0.10;;;;;;;26.56;40.77;100458.88;5446176;26;20273;-70
2024/04/08 09:28:59;;;;;;;0.20;0.10;;;;;;;26.57;41.05;100457.75;5427936;26;21102;-70
2024/04/08 09:31:25;;;;;;;0.20;0.10;;;;;;;26.61;40.30;100450.56;5429875;26;20471;-71
2024/04/08 09:33:52;;;;;;;0.20;0.10;;;;;;;26.65;40.60;100454.47;5440218;26;20323;-70
2024/04/08 09:36:19;;;;;;;0.20;0.10;;;;;;;26.66;40.33;100448.66;5450631;26;20262;-68
2024/04/08 09:38:47;;;;;;;0.20;0.10;;;;;;;26.69;40.53;100448.09;5452055;26;20274;-67
2024/04/08 09:41:17;;;;;;;0.20;0.10;;;;;;;26.72;40.38;100453.06;5422047;26;20224;-68
2024/04/08 09:43:45;;;;;;;0.20;0.10;;;;;;;26.75;40.24;100452.50;5386881;26;20274;-68
2024/04/08 09:46:13;;;;;;;0.20;0.10;;;;;;;26.75;40.33;100443.41;5430126;26;20596;-70
2024/04/08 09:48:41;;;;;;;0.20;0.10;;;;;;;26.77;40.29;100456.94;5431769;26;20240;-70
2024/04/08 09:51:08;;;;;;;0.20;0.10;;;;;;;26.77;40.18;100454.97;5434275;26;20283;-69
2024/04/08 09:53:35;;;;;;;0.20;0.10;;;;;;;26.78;40.34;100451.13;5436634;26;20310;-70
2024/04/08 09:56:04;;;;;;;0.20;0.10;;;;;;;26.78;40.18;100462.19;5437450;26;21150;-70
2024/04/08 09:58:33;;;;;;;0.20;0.10;;;;;;;26.79;40.14;100479.63;5431444;26;20240;-71
2024/04/08 10:01:03;;;;;;;0.20;0.10;;;;;;;26.78;40.54;100475.22;5433897;26;20286;-70
2024/04/08 10:03:36;;;;;;;0.20;0.10;;;;;;;26.77;40.81;100462.47;5418979;26;20689;-69
2024/04/08 10:06:03;;;;;;;0.20;0.10;;;;;;;26.75;41.01;100466.34;5397147;26;20236;-69
2024/04/08 10:08:29;;;;;;;0.20;0.10;;;;;;;26.74;40.39;100475.75;5426564;26;20325;-68
2024/04/08 10:10:56;;;;;;;0.20;0.10;;;;;;;26.74;40.43;100475.75;5433306;26;20299;-70
2024/04/08 10:13:22;;;;;;;0.20;0.10;;;;;;;26.75;40.19;100460.81;5435588;26;20247;-71
2024/04/08 10:15:48;;;;;;;0.20;0.10;;;;;;;26.75;40.43;100469.13;5432792;26;20248;-70
2024/04/08 10:18:14;;;;;;;0.20;0.10;;;;;;;26.75;40.12;100460.00;5428895;26;20277;-72
2024/04/08 10:20:43;;;;;;;0.20;0.10;;;;;;;26.74;40.30;100450.84;5447755;26;20279;-69
2024/04/08 10:23:10;;;;;;;0.20;0.10;;;;;;;26.74;40.18;100437.00;5442453;26;20231;-68
2024/04/08 10:25:42;;;;;;;0.20;0.10;;;;;;;26.74;40.16;100437.00;5440442;26;20315;-68
2024/04/08 10:28:15;;;;;;;0.20;0.10;;;;;;;26.74;40.01;100434.25;5451923;26;20727;-68
2024/04/08 10:30:44;;;;;;;0.20;0.10;;;;;;;26.73;40.11;100440.91;5447597;26;20339;-67
2024/04/08 10:33:10;;;;;;;0.20;0.10;;;;;;;26.73;40.06;100434.53;5441358;26;20243;-67
2024/04/08 10:35:37;;;;;;;0.20;0.10;;;;;;;26.71;40.07;100432.03;5449956;26;20566;-67
2024/04/08 10:38:04;;;;;;;0.20;0.10;;;;;;;26.69;39.92;100423.19;5439204;26;20643;-68
2024/04/08 10:40:32;;;;;;;0.20;0.10;;;;;;;26.68;40.33;100406.84;5417169;26;20298;-67
2024/04/08 10:42:58;;;;;;;0.20;0.10;;;;;;;26.67;41.96;100414.34;5439044;26;20710;-69
2024/04/08 10:45:25;;;;;;;0.20;0.10;;;;;;;26.67;40.41;100405.22;5428151;26;20230;-69
2024/04/08 10:48:01;;;;;;;0.20;0.10;;;;;;;26.68;40.69;100409.63;5428478;26;20306;-67
2024/04/08 10:50:28;;;;;;;0.20;0.10;;;;;;;26.67;40.40;100400.50;5441340;26;20280;-67
2024/04/08 10:52:54;;;;;;;0.20;0.10;;;;;;;26.67;40.19;100408.78;5439971;26;20813;-67
2024/04/08 10:55:21;;;;;;;0.20;0.10;;;;;;;26.68;40.15;100399.41;5439300;26;20219;-67
2024/04/08 10:57:47;;;;;;;0.20;0.10;;;;;;;26.69;40.12;100401.06;5410624;26;20239;-67
2024/04/08 11:00:13;;;;;;;0.20;0.10;;;;;;;26.68;40.29;100398.56;5436159;26;20317;-67
2024/04/08 11:02:42;;;;;;;0.20;0.10;;;;;;;26.67;40.14;100406.03;5442716;26;21047;-68
2024/04/08 11:05:10;;;;;;;0.20;0.10;;;;;;;26.65;40.03;100407.41;5413520;26;20235;-67
2024/04/08 11:07:37;;;;;;;0.20;0.10;;;;;;;26.63;40.16;100415.16;5409737;26;20782;-67
2024/04/08 11:10:17;;;;;;;0.20;0.10;;;;;;;26.62;40.28;100405.22;5438452;26;20231;-67
2024/04/08 11:12:44;;;;;;;0.20;0.10;;;;;;;26.59;40.46;100403.00;5445352;26;20663;-67
2024/04/08 11:15:13;;;;;;;0.20;0.10;;;;;;;26.56;40.21;100404.38;5417573;26;20231;-68